createdAt,value
2022-12-04T00:01:22.044Z,47.97
2022-12-04T00:03:52.462Z,50.42
2022-12-04T00:06:21.115Z,61.00
2022-12-04T00:08:48.791Z,42.80
2022-12-04T00:11:17.375Z,44.08
2022-12-04T00:13:45.091Z,50.60
2022-12-04T00:16:13.750Z,48.55
2022-12-04T00:18:41.098Z,45.53
2022-12-04T00:21:09.384Z,41.10
2022-12-04T00:23:37.352Z,47.63
2022-12-04T00:26:06.483Z,45.38
2022-12-04T00:28:33.858Z,52.28
2022-12-04T00:31:01.054Z,54.80
2022-12-04T00:33:28.824Z,44.60
2022-12-04T00:36:02.525Z,45.95
2022-12-04T00:38:30.102Z,46.47
2022-12-04T00:40:57.363Z,51.03
2022-12-04T00:43:24.678Z,49.10
2022-12-04T00:45:51.947Z,46.00
2022-12-04T00:48:19.370Z,47.60
2022-12-04T00:50:46.620Z,49.20
2022-12-04T00:53:14.145Z,55.40
2022-12-04T00:55:42.438Z,46.45
2022-12-04T00:58:09.700Z,46.67
2022-12-04T01:00:37.447Z,48.65
2022-12-04T01:03:04.905Z,44.05
2022-12-04T01:05:32.827Z,43.47
2022-12-04T01:08:00.151Z,57.92
2022-12-04T01:10:27.444Z,48.13
2022-12-04T01:12:54.684Z,43.42
2022-12-04T01:15:21.879Z,51.95
2022-12-04T01:17:49.092Z,44.88
2022-12-04T01:20:17.718Z,50.40
2022-12-04T01:22:44.934Z,51.63
2022-12-04T01:25:12.132Z,51.50
2022-12-04T01:27:39.352Z,47.45
2022-12-04T01:30:06.862Z,50.95
2022-12-04T01:32:34.070Z,47.58
2022-12-04T01:35:01.284Z,50.50
2022-12-04T01:37:30.693Z,46.78
2022-12-04T01:39:58.156Z,41.45
2022-12-04T01:42:25.441Z,46.45
2022-12-04T01:45:11.305Z,46.88
2022-12-04T01:47:38.478Z,51.83
2022-12-04T01:50:05.891Z,45.38
2022-12-04T01:52:33.105Z,55.30
2022-12-04T01:55:01.472Z,43.92
2022-12-04T01:57:31.895Z,52.92
2022-12-04T02:00:17.307Z,49.55
2022-12-04T02:02:46.718Z,47.58
2022-12-04T02:05:15.700Z,51.55
2022-12-04T02:07:44.035Z,48.05
2022-12-04T02:10:11.726Z,50.38
2022-12-04T02:12:57.702Z,56.65
2022-12-04T02:15:43.352Z,53.10
2022-12-04T02:18:15.956Z,52.70
2022-12-04T02:23:16.185Z,51.42
2022-12-04T02:25:43.814Z,49.25
2022-12-04T02:28:10.963Z,58.45
2022-12-04T02:30:40.005Z,61.75
2022-12-04T02:33:24.412Z,60.95
2022-12-04T02:35:54.870Z,66.70
2022-12-04T02:38:31.620Z,63.30
2022-12-04T02:41:19.064Z,58.45
2022-12-04T02:43:48.143Z,60.60
2022-12-04T02:46:31.385Z,67.57
2022-12-04T02:49:00.060Z,64.90
2022-12-04T02:51:29.227Z,67.18
2022-12-04T02:53:59.852Z,64.05
2022-12-04T02:56:29.161Z,67.72
2022-12-04T02:58:56.376Z,71.10
2022-12-04T03:01:37.277Z,71.43
2022-12-04T03:04:08.565Z,67.90
2022-12-04T03:06:37.817Z,77.10
2022-12-04T03:09:13.936Z,76.13
2022-12-04T03:11:43.978Z,67.88
2022-12-04T03:14:16.000Z,68.25
2022-12-04T03:16:43.728Z,69.68
2022-12-04T03:19:17.109Z,67.05
2022-12-04T03:21:51.350Z,71.93
2022-12-04T03:24:20.760Z,67.57
2022-12-04T03:26:48.922Z,63.17
2022-12-04T03:29:30.599Z,65.45
2022-12-04T03:32:14.468Z,65.00
2022-12-04T03:34:41.683Z,54.30
2022-12-04T03:37:10.989Z,55.47
2022-12-04T03:39:53.539Z,62.10
2022-12-04T03:42:23.485Z,56.95
2022-12-04T03:44:58.118Z,62.08
2022-12-04T03:47:30.880Z,54.15
2022-12-04T03:50:03.624Z,54.45
2022-12-04T03:52:35.692Z,59.78
2022-12-04T03:55:06.173Z,65.40
2022-12-04T03:57:34.893Z,58.63
2022-12-04T04:00:02.692Z,57.65
2022-12-04T04:02:33.731Z,59.05
2022-12-04T04:05:02.331Z,60.05
2022-12-04T04:07:35.604Z,59.67
2022-12-04T04:10:14.831Z,64.38
2022-12-04T04:13:08.308Z,53.03
2022-12-04T04:15:56.806Z,59.17
2022-12-04T04:18:43.096Z,49.05
2022-12-04T04:21:29.388Z,51.70
2022-12-04T04:24:14.966Z,52.92
2022-12-04T04:26:51.050Z,48.03
2022-12-04T04:29:18.250Z,53.10
2022-12-04T04:31:52.798Z,51.35
2022-12-04T04:34:23.841Z,47.67
2022-12-04T04:36:55.762Z,39.05
2022-12-04T04:39:29.028Z,50.95
2022-12-04T04:42:02.587Z,50.53
2022-12-04T04:44:32.830Z,46.47
2022-12-04T04:47:02.544Z,44.80
2022-12-04T04:49:32.224Z,46.60
2022-12-04T04:51:59.741Z,58.50
2022-12-04T04:54:27.858Z,51.72
2022-12-04T04:56:55.051Z,51.17
2022-12-04T04:59:22.341Z,56.83
2022-12-04T05:01:49.619Z,58.47
2022-12-04T05:04:17.007Z,63.30
2022-12-04T05:06:44.288Z,59.50
2022-12-04T05:09:11.481Z,62.15
2022-12-04T05:11:38.760Z,51.80
2022-12-04T05:14:06.225Z,64.10
2022-12-04T05:16:33.619Z,51.20
2022-12-04T05:19:19.488Z,54.70
2022-12-04T05:21:46.737Z,49.25
2022-12-04T05:24:13.938Z,51.03
2022-12-04T05:26:41.195Z,41.90
2022-12-04T05:29:08.367Z,43.50
2022-12-04T05:31:35.569Z,41.60
2022-12-04T05:34:02.860Z,35.50
2022-12-04T05:36:30.110Z,42.70
2022-12-04T05:38:57.254Z,33.95
2022-12-04T05:41:24.666Z,39.22
2022-12-04T05:43:51.856Z,32.08
2022-12-04T05:46:19.109Z,34.45
2022-12-04T05:48:46.344Z,41.65
2022-12-04T05:51:13.721Z,35.67
2022-12-04T05:53:40.976Z,28.20
2022-12-04T05:56:08.664Z,32.92
2022-12-04T05:58:39.092Z,35.25
2022-12-04T06:01:13.888Z,29.35
2022-12-04T06:03:41.266Z,28.27
2022-12-04T06:06:21.082Z,43.42
2022-12-04T06:08:49.298Z,32.83
2022-12-04T06:11:18.248Z,31.48
2022-12-04T06:13:46.047Z,26.65
2022-12-04T06:16:16.054Z,30.90
2022-12-04T06:18:43.640Z,31.75
2022-12-04T06:21:11.481Z,25.77
2022-12-04T06:23:38.684Z,27.63
2022-12-04T06:26:07.341Z,25.02
2022-12-04T06:28:35.141Z,25.48
2022-12-04T06:31:04.573Z,24.73
2022-12-04T06:33:32.244Z,30.20
2022-12-04T06:36:00.755Z,35.28
2022-12-04T06:38:28.315Z,29.10
2022-12-04T06:40:55.918Z,25.75
2022-12-04T06:43:23.312Z,37.10
2022-12-04T06:45:50.933Z,27.15
2022-12-04T06:48:18.280Z,31.73
2022-12-04T06:50:45.530Z,27.52
2022-12-04T06:53:12.847Z,30.95
2022-12-04T06:55:41.011Z,30.73
2022-12-04T06:58:08.252Z,23.98
2022-12-04T07:00:35.574Z,27.85
2022-12-04T07:03:02.901Z,22.77
2022-12-04T07:05:30.126Z,24.08
2022-12-04T07:07:57.427Z,30.50
2022-12-04T07:10:24.669Z,30.77
2022-12-04T07:12:53.026Z,35.05
2022-12-04T07:15:20.291Z,35.83
2022-12-04T07:17:47.589Z,35.58
2022-12-04T07:20:14.976Z,29.40
2022-12-04T07:22:42.166Z,33.95
2022-12-04T07:25:09.701Z,26.55
2022-12-04T07:27:36.882Z,29.83
2022-12-04T07:30:05.056Z,29.90
2022-12-04T07:32:32.539Z,33.47
2022-12-04T07:34:59.901Z,32.05
2022-12-04T07:37:27.111Z,24.73
2022-12-04T07:39:54.688Z,33.95
2022-12-04T07:42:24.436Z,30.75
2022-12-04T07:44:51.918Z,22.98
2022-12-04T07:47:21.427Z,32.10
2022-12-04T07:49:48.658Z,28.35
2022-12-04T07:52:15.817Z,37.00
2022-12-04T07:54:43.131Z,30.73
2022-12-04T07:57:10.315Z,33.83
2022-12-04T07:59:37.663Z,38.45
2022-12-04T08:02:06.751Z,28.83
2022-12-04T08:04:34.185Z,28.17
2022-12-04T08:07:01.478Z,24.45
2022-12-04T08:09:28.670Z,25.20
2022-12-04T08:11:55.983Z,20.77
2022-12-04T08:14:23.372Z,21.85
2022-12-04T08:16:52.938Z,27.33
2022-12-04T08:19:20.437Z,21.17
2022-12-04T08:21:47.652Z,25.95
2022-12-04T08:24:15.224Z,18.05
2022-12-04T08:26:42.789Z,22.17
2022-12-04T08:29:10.019Z,23.05
2022-12-04T08:31:37.439Z,22.52
2022-12-04T08:34:06.853Z,26.05
2022-12-04T08:36:34.442Z,22.65
2022-12-04T08:39:01.675Z,20.70
2022-12-04T08:41:29.184Z,21.73
2022-12-04T08:43:57.833Z,29.90
2022-12-04T08:46:26.396Z,25.55
2022-12-04T08:48:54.052Z,25.90
2022-12-04T08:51:22.760Z,22.45
2022-12-04T08:53:53.521Z,16.58
2022-12-04T08:56:20.744Z,23.88
2022-12-04T08:58:48.120Z,20.20
2022-12-04T09:01:15.851Z,17.10
2022-12-04T09:03:43.524Z,27.42
2022-12-04T09:06:11.492Z,21.92
2022-12-04T09:08:38.980Z,22.55
2022-12-04T09:11:09.012Z,29.77
2022-12-04T09:13:36.730Z,21.50
2022-12-04T09:16:05.705Z,29.30
2022-12-04T09:18:33.110Z,26.20
2022-12-04T09:21:01.786Z,30.75
2022-12-04T09:23:29.256Z,29.45
2022-12-04T09:25:56.547Z,26.20
2022-12-04T09:28:23.818Z,31.55
2022-12-04T09:31:17.336Z,32.45
2022-12-04T09:33:44.738Z,32.30
2022-12-04T09:36:18.293Z,28.83
2022-12-04T09:38:46.668Z,27.83
2022-12-04T09:41:34.472Z,35.97
2022-12-04T09:44:01.640Z,32.95
2022-12-04T09:46:40.157Z,33.55
2022-12-04T09:49:18.319Z,32.88
2022-12-04T09:51:45.865Z,37.33
2022-12-04T09:54:16.136Z,36.42
2022-12-04T09:56:44.875Z,26.60
2022-12-04T09:59:15.916Z,37.38
2022-12-04T10:01:45.904Z,31.13
2022-12-04T10:04:13.651Z,36.47
2022-12-04T10:06:48.553Z,34.42
2022-12-04T10:09:24.959Z,36.55
2022-12-04T10:12:04.416Z,32.80
2022-12-04T10:14:40.809Z,29.60
2022-12-04T10:17:18.555Z,30.00
2022-12-04T10:20:00.008Z,39.58
2022-12-04T10:22:46.286Z,40.90
2022-12-04T10:25:17.382Z,37.03
2022-12-04T10:28:02.712Z,40.05
2022-12-04T10:30:31.651Z,34.60
2022-12-04T10:33:00.935Z,35.50
2022-12-04T10:35:29.856Z,32.65
2022-12-04T10:38:16.117Z,34.88
2022-12-04T10:40:48.967Z,32.10
2022-12-04T10:43:21.211Z,34.80
2022-12-04T10:45:48.577Z,39.67
2022-12-04T10:48:24.884Z,43.17
2022-12-04T10:50:52.098Z,40.03
2022-12-04T10:53:21.139Z,36.83
2022-12-04T10:55:48.641Z,37.25
2022-12-04T10:58:20.537Z,30.80
2022-12-04T11:01:00.350Z,31.90
2022-12-04T11:03:29.185Z,36.63
2022-12-04T11:06:00.818Z,28.13
2022-12-04T11:08:31.872Z,29.30
2022-12-04T11:11:03.352Z,35.50
2022-12-04T11:13:30.737Z,29.55
2022-12-04T11:15:59.224Z,36.53
2022-12-04T11:18:31.466Z,41.40
2022-12-04T11:21:04.387Z,39.80
2022-12-04T11:23:35.936Z,32.17
2022-12-04T11:26:06.250Z,31.27
2022-12-04T11:28:41.519Z,37.20
2022-12-04T11:31:10.448Z,30.63
2022-12-04T11:33:37.869Z,38.03
2022-12-04T11:36:14.696Z,32.60
2022-12-04T11:38:41.886Z,34.58
2022-12-04T11:41:23.213Z,32.40
2022-12-04T11:43:53.080Z,29.17
2022-12-04T11:46:25.125Z,29.42
2022-12-04T11:48:52.842Z,33.90
2022-12-04T11:51:26.117Z,34.17
2022-12-04T11:53:55.097Z,34.97
2022-12-04T11:56:34.572Z,37.17
2022-12-04T11:59:07.979Z,29.90
2022-12-04T12:01:38.001Z,37.30
2022-12-04T12:04:23.729Z,31.58
2022-12-04T12:07:04.290Z,32.70
2022-12-04T12:09:37.383Z,27.63
2022-12-04T12:12:23.580Z,33.53
2022-12-04T12:14:57.024Z,32.22
2022-12-04T12:17:29.563Z,26.45
2022-12-04T12:19:57.042Z,24.50
2022-12-04T12:22:42.904Z,35.65
2022-12-04T12:25:20.564Z,30.35
2022-12-04T12:28:13.431Z,27.02
2022-12-04T12:31:05.395Z,36.20
2022-12-04T12:33:40.699Z,29.60
2022-12-04T12:36:09.890Z,28.88
2022-12-04T12:38:44.552Z,28.65
2022-12-04T12:41:24.103Z,23.42
2022-12-04T12:44:02.812Z,22.05
2022-12-04T12:46:33.017Z,28.05
2022-12-04T12:49:04.950Z,22.15
2022-12-04T12:51:38.322Z,25.05
2022-12-04T12:54:13.046Z,25.02
2022-12-04T12:56:49.187Z,28.48
2022-12-04T12:59:19.577Z,26.55
2022-12-04T13:01:49.954Z,28.63
2022-12-04T13:04:25.991Z,27.05
2022-12-04T13:06:58.964Z,24.55
2022-12-04T13:09:31.944Z,24.33
2022-12-04T13:12:09.474Z,25.75
2022-12-04T13:14:36.796Z,23.38
2022-12-04T13:17:12.251Z,20.35
2022-12-04T13:19:46.323Z,24.42
2022-12-04T13:22:30.160Z,26.88
2022-12-04T13:25:04.894Z,23.80
2022-12-04T13:27:38.063Z,53.20
2022-12-04T13:30:14.532Z,26.77
2022-12-04T13:32:41.811Z,26.23
2022-12-04T13:35:09.004Z,26.02
2022-12-04T13:37:36.201Z,27.95
2022-12-04T13:40:23.672Z,23.38
2022-12-04T13:42:50.893Z,25.25
2022-12-04T13:45:28.602Z,22.10
2022-12-04T13:48:00.072Z,24.65
2022-12-04T13:50:34.473Z,26.40
2022-12-04T13:53:02.406Z,20.50
2022-12-04T13:55:31.615Z,20.33
2022-12-04T13:58:00.597Z,20.33
2022-12-04T14:00:29.980Z,19.70
2022-12-04T14:02:58.742Z,20.23
2022-12-04T14:05:31.287Z,30.92
2022-12-04T14:08:17.218Z,23.23
2022-12-04T14:10:44.998Z,20.65
2022-12-04T14:13:24.212Z,22.38
2022-12-04T14:16:03.702Z,18.13
2022-12-04T14:18:31.271Z,21.83
2022-12-04T14:21:04.564Z,24.08
2022-12-04T14:23:36.320Z,22.95
2022-12-04T14:26:05.306Z,22.07
2022-12-04T14:28:37.303Z,27.42
2022-12-04T14:31:27.098Z,21.25
2022-12-04T14:33:57.721Z,20.38
2022-12-04T14:36:26.347Z,21.17
2022-12-04T14:39:02.770Z,22.20
2022-12-04T14:41:29.977Z,21.02
2022-12-04T14:43:57.618Z,22.48
2022-12-04T14:46:43.417Z,27.63
2022-12-04T14:49:20.418Z,22.85
2022-12-04T14:51:53.696Z,17.77
2022-12-04T14:54:39.933Z,18.00
2022-12-04T14:57:14.150Z,21.95
2022-12-04T14:59:41.579Z,24.08
2022-12-04T15:02:12.955Z,24.60
2022-12-04T15:04:45.932Z,24.90
2022-12-04T15:07:24.155Z,27.05
2022-12-04T15:10:20.508Z,24.25
2022-12-04T15:12:55.134Z,22.85
2022-12-04T15:15:27.716Z,22.83
2022-12-04T15:20:22.697Z,41.55
2022-12-04T15:22:50.406Z,16.77
2022-12-04T15:25:19.988Z,21.33
2022-12-04T15:27:48.404Z,17.58
2022-12-04T15:30:19.988Z,17.35
2022-12-04T15:32:48.474Z,17.10
2022-12-04T15:35:27.842Z,15.02
2022-12-04T15:37:55.392Z,21.20
2022-12-04T15:40:24.223Z,18.05
2022-12-04T15:42:51.736Z,16.92
2022-12-04T15:45:19.025Z,22.85
2022-12-04T15:47:46.182Z,16.13
2022-12-04T15:50:16.141Z,19.27
2022-12-04T15:52:55.703Z,15.57
2022-12-04T15:55:24.294Z,19.63
2022-12-04T15:57:53.615Z,18.67
2022-12-04T16:00:29.320Z,20.55
2022-12-04T16:02:57.089Z,20.63
2022-12-04T16:05:24.281Z,22.73
2022-12-04T16:07:52.987Z,22.35
2022-12-04T16:10:25.198Z,19.67
2022-12-04T16:12:56.434Z,19.65
2022-12-04T16:15:24.685Z,20.50
2022-12-04T16:17:51.947Z,19.13
2022-12-04T16:20:19.208Z,17.88
2022-12-04T16:22:46.744Z,23.52
2022-12-04T16:25:14.037Z,24.67
2022-12-04T16:27:41.312Z,31.75
2022-12-04T16:30:09.449Z,25.75
2022-12-04T16:32:36.780Z,23.83
2022-12-04T16:35:04.099Z,23.77
2022-12-04T16:37:31.786Z,21.58
2022-12-04T16:39:59.422Z,34.65
2022-12-04T16:42:27.887Z,25.80
2022-12-04T16:44:55.737Z,21.20
2022-12-04T16:47:23.344Z,25.88
2022-12-04T16:49:51.457Z,21.25
2022-12-04T16:52:19.686Z,22.08
2022-12-04T16:54:47.376Z,22.90
2022-12-04T16:57:14.553Z,24.25
2022-12-04T16:59:42.493Z,24.33
2022-12-04T17:02:17.992Z,22.63
2022-12-04T17:04:45.968Z,25.58
2022-12-04T17:07:13.242Z,24.58
2022-12-04T17:09:40.437Z,21.35
2022-12-04T17:12:07.705Z,28.50
2022-12-04T17:14:35.658Z,21.58
2022-12-04T17:17:02.908Z,26.63
2022-12-04T17:19:30.233Z,26.58
2022-12-04T17:21:58.369Z,23.23
2022-12-04T17:24:25.631Z,24.25
2022-12-04T17:26:52.986Z,21.80
2022-12-04T17:29:20.208Z,21.85
2022-12-04T17:31:47.589Z,20.27
2022-12-04T17:34:16.487Z,27.35
2022-12-04T17:36:43.686Z,33.42
2022-12-04T17:39:13.009Z,32.78
2022-12-04T17:41:40.226Z,24.13
2022-12-04T17:44:07.543Z,21.80
2022-12-04T17:46:34.908Z,28.20
2022-12-04T17:49:06.821Z,28.48
2022-12-04T17:51:35.800Z,28.95
2022-12-04T17:54:03.212Z,27.90
2022-12-04T17:56:30.503Z,27.42
2022-12-04T17:58:57.751Z,27.40
2022-12-04T18:01:26.356Z,27.20
2022-12-04T18:03:54.731Z,23.60
2022-12-04T18:06:23.652Z,30.98
2022-12-04T18:08:51.535Z,25.70
2022-12-04T18:11:20.852Z,26.73
2022-12-04T18:13:50.181Z,30.42
2022-12-04T18:16:17.442Z,30.95
2022-12-04T18:18:47.159Z,33.05
2022-12-04T18:21:15.234Z,27.13
2022-12-04T18:23:45.980Z,29.55
2022-12-04T18:26:20.915Z,27.65
2022-12-04T18:28:48.772Z,34.83
2022-12-04T18:31:16.663Z,26.27
2022-12-04T18:33:44.263Z,21.80
2022-12-04T18:36:15.911Z,25.10
2022-12-04T18:38:43.260Z,28.45
2022-12-04T18:41:11.892Z,23.88
2022-12-04T18:43:40.062Z,31.25
2022-12-04T18:46:09.198Z,30.85
2022-12-04T18:48:36.806Z,29.40
2022-12-04T18:51:14.319Z,31.23
2022-12-04T18:53:41.592Z,32.92
2022-12-04T18:56:08.887Z,33.35
2022-12-04T18:58:36.106Z,34.10
2022-12-04T19:01:07.464Z,35.55
2022-12-04T19:03:35.006Z,32.13
2022-12-04T19:06:02.808Z,34.38
2022-12-04T19:08:33.774Z,34.42
2022-12-04T19:11:07.602Z,31.48
2022-12-04T19:13:35.266Z,28.13
2022-12-04T19:16:02.977Z,34.72
2022-12-04T19:18:30.711Z,31.92
2022-12-04T19:20:57.984Z,35.47
2022-12-04T19:23:25.318Z,28.40
2022-12-04T19:25:56.656Z,39.83
2022-12-04T19:28:24.532Z,34.65
2022-12-04T19:30:52.041Z,33.10
2022-12-04T19:33:19.660Z,48.75
2022-12-04T19:35:57.192Z,42.60
2022-12-04T19:38:24.703Z,39.55
2022-12-04T19:41:02.117Z,37.83
2022-12-04T19:43:29.482Z,35.10
2022-12-04T19:45:56.817Z,32.08
2022-12-04T19:48:24.120Z,31.63
2022-12-04T19:50:51.399Z,33.67
2022-12-04T19:53:18.719Z,34.22
2022-12-04T19:55:45.941Z,31.55
2022-12-04T19:58:13.734Z,30.70
2022-12-04T20:00:41.011Z,40.58
2022-12-04T20:03:08.543Z,32.10
2022-12-04T20:05:39.926Z,36.55
2022-12-04T20:10:35.792Z,37.85
2022-12-04T20:13:03.236Z,38.03
2022-12-04T20:15:30.501Z,39.83
2022-12-04T20:17:58.101Z,35.50
2022-12-04T20:20:25.292Z,34.72
2022-12-04T20:22:52.569Z,37.80
2022-12-04T20:25:19.792Z,37.45
2022-12-04T20:27:46.979Z,34.78
2022-12-04T20:30:14.236Z,35.45
2022-12-04T20:32:41.484Z,32.97
2022-12-04T20:35:08.998Z,38.63
2022-12-04T20:37:36.863Z,38.42
2022-12-04T20:40:07.562Z,36.13
2022-12-04T20:42:35.685Z,35.47
2022-12-04T20:45:02.956Z,37.63
2022-12-04T20:47:30.244Z,37.97
2022-12-04T20:49:57.598Z,33.42
2022-12-04T20:52:24.947Z,35.17
2022-12-04T20:54:52.195Z,34.17
2022-12-04T20:57:19.376Z,30.05
2022-12-04T20:59:46.601Z,38.60
2022-12-04T21:02:13.978Z,36.58
2022-12-04T21:04:41.741Z,32.28
2022-12-04T21:07:09.026Z,41.45
2022-12-04T21:09:36.374Z,39.72
2022-12-04T21:12:23.812Z,42.55
2022-12-04T21:15:09.544Z,33.60
2022-12-04T21:17:36.712Z,36.42
2022-12-04T21:20:07.723Z,39.63
2022-12-04T21:22:36.639Z,38.00
2022-12-04T21:25:04.603Z,35.63
2022-12-04T21:27:31.861Z,35.22
2022-12-04T21:29:59.972Z,38.45
2022-12-04T21:32:27.208Z,33.80
2022-12-04T21:34:54.444Z,39.17
2022-12-04T21:37:21.618Z,33.53
2022-12-04T21:39:48.999Z,42.53
2022-12-04T21:42:31.633Z,36.80
2022-12-04T21:45:02.283Z,35.47
2022-12-04T21:47:30.392Z,31.35
2022-12-04T21:49:58.073Z,37.47
2022-12-04T21:52:25.691Z,34.92
2022-12-04T21:54:53.354Z,36.72
2022-12-04T21:57:21.048Z,43.35
2022-12-04T21:59:48.755Z,35.42
2022-12-04T22:02:16.347Z,38.65
2022-12-04T22:04:44.787Z,28.30
2022-12-04T22:07:12.420Z,34.80
2022-12-04T22:09:39.751Z,30.75
2022-12-04T22:12:26.366Z,30.00
2022-12-04T22:14:54.464Z,33.63
2022-12-04T22:17:21.639Z,38.90
2022-12-04T22:19:48.852Z,39.55
2022-12-04T22:22:16.559Z,34.72
2022-12-04T22:24:44.061Z,39.88
2022-12-04T22:27:14.915Z,39.97
2022-12-04T22:29:50.390Z,36.10
2022-12-04T22:32:28.641Z,35.50
2022-12-04T22:34:55.925Z,34.08
2022-12-04T22:37:23.968Z,36.45
2022-12-04T22:39:51.216Z,36.95
2022-12-04T22:42:18.411Z,41.38
2022-12-04T22:44:45.709Z,35.00
2022-12-04T22:47:13.000Z,35.38
2022-12-04T22:49:40.175Z,48.30
2022-12-04T22:52:07.481Z,39.22
2022-12-04T22:54:34.725Z,29.92
2022-12-04T22:57:01.914Z,33.20
2022-12-04T22:59:29.310Z,33.08
2022-12-04T23:01:56.614Z,33.42
2022-12-04T23:04:23.959Z,35.65
2022-12-04T23:06:51.193Z,42.35
2022-12-04T23:09:18.972Z,37.10
2022-12-04T23:11:46.241Z,35.72
2022-12-04T23:14:14.866Z,33.78
2022-12-04T23:16:42.700Z,37.97
2022-12-04T23:19:11.908Z,35.75
2022-12-04T23:21:39.699Z,33.95
2022-12-04T23:24:06.951Z,34.60
2022-12-04T23:26:35.921Z,39.83
2022-12-04T23:29:05.325Z,40.08
2022-12-04T23:31:37.404Z,35.03
2022-12-04T23:34:05.119Z,37.13
2022-12-04T23:36:32.503Z,37.65
2022-12-04T23:38:59.706Z,34.92
2022-12-04T23:41:28.588Z,40.65
2022-12-04T23:43:55.855Z,36.25
2022-12-04T23:46:25.001Z,36.33
2022-12-04T23:48:52.237Z,51.55
2022-12-04T23:51:20.087Z,33.08
2022-12-04T23:53:47.771Z,37.70
2022-12-04T23:56:14.939Z,36.55
2022-12-04T23:58:42.591Z,37.55
